sensor_id;sensor_type;location;lat;lon;timestamp;pressure;altitude;pressure_sealevel;temperature;humidity
75051;BME280;63628;47.656;11.310;2023-03-22T00:01:35;94697.19;;;10.61;69.16
75051;BME280;63628;47.656;11.310;2023-03-22T00:04:02;94705.28;;;10.42;67.01
75051;BME280;63628;47.656;11.310;2023-03-22T00:06:28;94704.41;;;9.37;72.22
75051;BME280;63628;47.656;11.310;2023-03-22T00:08:55;94703.53;;;8.10;68.17
75051;BME280;63628;47.656;11.310;2023-03-22T00:11:22;94704.41;;;9.37;72.98
75051;BME280;63628;47.656;11.310;2023-03-22T00:13:53;94697.22;;;10.37;70.09
75051;BME280;63628;47.656;11.310;2023-03-22T00:16:20;94691.22;;;10.54;69.21
75051;BME280;63628;47.656;11.310;2023-03-22T00:18:47;94690.19;;;10.55;69.35
75051;BME280;63628;47.656;11.310;2023-03-22T00:21:15;94688.78;;;10.64;68.73
75051;BME280;63628;47.656;11.310;2023-03-22T00:23:43;94689.78;;;8.26;68.72
75051;BME280;63628;47.656;11.310;2023-03-22T00:26:11;94694.91;;;9.59;72.85
75051;BME280;63628;47.656;11.310;2023-03-22T00:28:38;94687.44;;;10.38;70.21
75051;BME280;63628;47.656;11.310;2023-03-22T00:31:06;94678.91;;;10.47;69.29
75051;BME280;63628;47.656;11.310;2023-03-22T00:33:34;94676.16;;;10.54;69.04
75051;BME280;63628;47.656;11.310;2023-03-22T00:36:04;94669.94;;;10.48;68.92
75051;BME280;63628;47.656;11.310;2023-03-22T00:38:31;94675.59;;;9.35;70.92
75051;BME280;63628;47.656;11.310;2023-03-22T00:41:10;94670.66;;;10.32;69.72
75051;BME280;63628;47.656;11.310;2023-03-22T00:43:38;94660.06;;;10.44;69.42
75051;BME280;63628;47.656;11.310;2023-03-22T00:46:05;94661.22;;;10.48;69.22
75051;BME280;63628;47.656;11.310;2023-03-22T00:48:33;94652.47;;;10.47;68.84
75051;BME280;63628;47.656;11.310;2023-03-22T00:51:00;94654.41;;;10.52;68.04
75051;BME280;63628;47.656;11.310;2023-03-22T00:53:27;94654.75;;;10.56;68.71
75051;BME280;63628;47.656;11.310;2023-03-22T00:55:58;94643.63;;;10.42;68.79
75051;BME280;63628;47.656;11.310;2023-03-22T00:58:25;94644.22;;;10.21;63.35
75051;BME280;63628;47.656;11.310;2023-03-22T01:00:52;94635.97;;;9.70;70.63
75051;BME280;63628;47.656;11.310;2023-03-22T01:03:19;94637.19;;;10.26;69.35
75051;BME280;63628;47.656;11.310;2023-03-22T01:05:50;94637.25;;;9.56;62.12
75051;BME280;63628;47.656;11.310;2023-03-22T01:08:16;94634.09;;;9.12;72.00
75051;BME280;63628;47.656;11.310;2023-03-22T01:10:43;94626.63;;;10.14;69.13
75051;BME280;63628;47.656;11.310;2023-03-22T01:13:10;94626.38;;;10.28;68.76
75051;BME280;63628;47.656;11.310;2023-03-22T01:15:37;94612.94;;;10.29;69.70
75051;BME280;63628;47.656;11.310;2023-03-22T01:18:04;94612.13;;;10.40;68.42
75051;BME280;63628;47.656;11.310;2023-03-22T01:20:31;94626.03;;;7.38;71.52
75051;BME280;63628;47.656;11.310;2023-03-22T01:22:59;94620.00;;;7.74;77.48
75051;BME280;63628;47.656;11.310;2023-03-22T01:25:26;94623.56;;;9.71;70.61
75051;BME280;63628;47.656;11.310;2023-03-22T01:27:52;94623.31;;;10.07;69.61
75051;BME280;63628;47.656;11.310;2023-03-22T01:30:19;94616.63;;;10.16;68.88
75051;BME280;63628;47.656;11.310;2023-03-22T01:32:46;94612.94;;;9.01;69.85
75051;BME280;63628;47.656;11.310;2023-03-22T01:35:12;94598.97;;;9.94;69.95
75051;BME280;63628;47.656;11.310;2023-03-22T01:37:39;94590.31;;;10.10;68.46
75051;BME280;63628;47.656;11.310;2023-03-22T01:40:09;94593.41;;;10.07;67.50
75051;BME280;63628;47.656;11.310;2023-03-22T01:42:36;94591.81;;;10.06;68.28
75051;BME280;63628;47.656;11.310;2023-03-22T01:45:34;94584.56;;;10.13;68.68
75051;BME280;63628;47.656;11.310;2023-03-22T01:48:06;94590.53;;;10.20;69.18
75051;BME280;63628;47.656;11.310;2023-03-22T01:50:34;94588.91;;;10.19;68.76
75051;BME280;63628;47.656;11.310;2023-03-22T01:53:03;94587.91;;;10.20;69.55
75051;BME280;63628;47.656;11.310;2023-03-22T01:55:33;94592.81;;;10.16;68.54
75051;BME280;63628;47.656;11.310;2023-03-22T01:58:01;94590.53;;;10.08;68.31
75051;BME280;63628;47.656;11.310;2023-03-22T02:00:28;94592.94;;;10.10;69.10
75051;BME280;63628;47.656;11.310;2023-03-22T02:02:55;94591.56;;;10.07;69.15
75051;BME280;63628;47.656;11.310;2023-03-22T02:05:23;94587.19;;;10.13;68.98
75051;BME280;63628;47.656;11.310;2023-03-22T02:07:50;94598.25;;;7.42;75.64
75051;BME280;63628;47.656;11.310;2023-03-22T02:10:21;94585.69;;;9.42;70.39
75051;BME280;63628;47.656;11.310;2023-03-22T02:12:59;94599.13;;;7.11;75.65
75051;BME280;63628;47.656;11.310;2023-03-22T02:15:32;94592.31;;;8.38;75.18
75051;BME280;63628;47.656;11.310;2023-03-22T02:18:18;94585.19;;;9.68;70.91
75051;BME280;63628;47.656;11.310;2023-03-22T02:21:19;94594.47;;;7.74;73.33
75051;BME280;63628;47.656;11.310;2023-03-22T02:24:10;94599.03;;;8.94;73.10
75051;BME280;63628;47.656;11.310;2023-03-22T02:29:59;94592.66;;;9.83;69.68
75051;BME280;63628;47.656;11.310;2023-03-22T02:32:52;94593.00;;;9.87;69.04
75051;BME280;63628;47.656;11.310;2023-03-22T02:35:48;94588.28;;;9.89;69.22
75051;BME280;63628;47.656;11.310;2023-03-22T02:38:47;94583.34;;;9.92;69.10
75051;BME280;63628;47.656;11.310;2023-03-22T02:41:27;94597.19;;;7.86;74.32
75051;BME280;63628;47.656;11.310;2023-03-22T02:44:05;94591.19;;;9.52;70.77
75051;BME280;63628;47.656;11.310;2023-03-22T02:46:37;94580.63;;;9.17;66.91
75051;BME280;63628;47.656;11.310;2023-03-22T02:49:14;94582.09;;;9.60;70.38
75051;BME280;63628;47.656;11.310;2023-03-22T02:51:45;94584.06;;;9.76;70.05
75051;BME280;63628;47.656;11.310;2023-03-22T02:54:19;94584.41;;;9.79;69.72
75051;BME280;63628;47.656;11.310;2023-03-22T02:56:52;94592.91;;;9.81;69.95
75051;BME280;63628;47.656;11.310;2023-03-22T02:59:23;94588.28;;;9.89;69.34
75051;BME280;63628;47.656;11.310;2023-03-22T03:01:54;94586.44;;;9.89;68.26
75051;BME280;63628;47.656;11.310;2023-03-22T03:04:24;94596.56;;;9.57;69.99
75051;BME280;63628;47.656;11.310;2023-03-22T03:06:56;94589.91;;;9.78;69.74
75051;BME280;63628;47.656;11.310;2023-03-22T03:09:25;94594.50;;;9.82;69.14
75051;BME280;63628;47.656;11.310;2023-03-22T03:11:53;94585.88;;;9.87;68.88
75051;BME280;63628;47.656;11.310;2023-03-22T03:14:22;94591.06;;;9.59;67.95
75051;BME280;63628;47.656;11.310;2023-03-22T03:16:58;94598.19;;;9.58;69.57
75051;BME280;63628;47.656;11.310;2023-03-22T03:19:32;94593.13;;;9.80;69.16
75051;BME280;63628;47.656;11.310;2023-03-22T03:22:08;94580.16;;;9.78;68.71
75051;BME280;63628;47.656;11.310;2023-03-22T03:24:45;94590.16;;;9.76;68.97
75051;BME280;63628;47.656;11.310;2023-03-22T03:27:16;94597.16;;;9.82;69.08
75051;BME280;63628;47.656;11.310;2023-03-22T03:29:49;94590.72;;;9.78;69.12
75051;BME280;63628;47.656;11.310;2023-03-22T03:32:22;94603.59;;;9.87;68.39
75051;BME280;63628;47.656;11.310;2023-03-22T03:34:54;94597.03;;;9.77;69.10
75051;BME280;63628;47.656;11.310;2023-03-22T03:37:26;94596.34;;;9.82;68.35
75051;BME280;63628;47.656;11.310;2023-03-22T03:39:59;94596.13;;;9.60;69.09
75051;BME280;63628;47.656;11.310;2023-03-22T03:42:30;94600.94;;;9.40;65.10
75051;BME280;63628;47.656;11.310;2023-03-22T03:44:58;94587.84;;;9.68;68.93
75051;BME280;63628;47.656;11.310;2023-03-22T03:47:27;94592.41;;;8.13;72.45
75051;BME280;63628;47.656;11.310;2023-03-22T03:49:54;94590.84;;;9.25;70.51
75051;BME280;63628;47.656;11.310;2023-03-22T03:52:21;94591.97;;;8.16;69.93
75051;BME280;63628;47.656;11.310;2023-03-22T03:54:49;94587.28;;;9.31;70.64
75051;BME280;63628;47.656;11.310;2023-03-22T03:57:17;94584.41;;;9.56;68.89
75051;BME280;63628;47.656;11.310;2023-03-22T03:59:44;94591.63;;;9.61;69.26
75051;BME280;63628;47.656;11.310;2023-03-22T04:02:11;94596.22;;;9.65;69.72
75051;BME280;63628;47.656;11.310;2023-03-22T04:04:37;94596.91;;;9.72;68.07
75051;BME280;63628;47.656;11.310;2023-03-22T04:07:05;94597.59;;;9.68;68.63
75051;BME280;63628;47.656;11.310;2023-03-22T04:09:34;94604.50;;;9.69;68.81
75051;BME280;63628;47.656;11.310;2023-03-22T04:12:01;94594.84;;;9.63;68.55
75051;BME280;63628;47.656;11.310;2023-03-22T04:14:29;94599.56;;;9.61;68.69
75051;BME280;63628;47.656;11.310;2023-03-22T04:16:56;94595.53;;;9.58;68.66
75051;BME280;63628;47.656;11.310;2023-03-22T04:19:22;94596.75;;;8.97;65.79
75051;BME280;63628;47.656;11.310;2023-03-22T04:21:49;94610.41;;;6.61;74.88
75051;BME280;63628;47.656;11.310;2023-03-22T04:24:18;94610.25;;;7.56;76.01
75051;BME280;63628;47.656;11.310;2023-03-22T04:26:46;94596.13;;;9.13;70.45
75051;BME280;63628;47.656;11.310;2023-03-22T04:29:13;94606.97;;;6.61;70.86
75051;BME280;63628;47.656;11.310;2023-03-22T04:31:41;94607.19;;;7.77;74.94
75051;BME280;63628;47.656;11.310;2023-03-22T04:34:07;94602.50;;;9.06;70.83
75051;BME280;63628;47.656;11.310;2023-03-22T04:36:36;94593.81;;;9.29;70.10
75051;BME280;63628;47.656;11.310;2023-03-22T04:39:07;94595.31;;;9.36;69.49
75051;BME280;63628;47.656;11.310;2023-03-22T04:41:34;94590.28;;;9.35;69.94
75051;BME280;63628;47.656;11.310;2023-03-22T04:44:02;94587.63;;;9.35;69.81
75051;BME280;63628;47.656;11.310;2023-03-22T04:46:30;94596.53;;;7.04;67.88
75051;BME280;63628;47.656;11.310;2023-03-22T04:48:58;94585.47;;;8.78;71.08
75051;BME280;63628;47.656;11.310;2023-03-22T04:51:26;94586.03;;;9.22;69.63
75051;BME280;63628;47.656;11.310;2023-03-22T04:53:53;94579.81;;;9.28;69.74
75051;BME280;63628;47.656;11.310;2023-03-22T04:56:20;94583.84;;;9.31;69.28
75051;BME280;63628;47.656;11.310;2023-03-22T04:58:47;94594.06;;;6.84;65.68
75051;BME280;63628;47.656;11.310;2023-03-22T05:01:15;94598.56;;;4.90;74.84
75051;BME280;63628;47.656;11.310;2023-03-22T05:03:43;94600.50;;;4.22;77.76
75051;BME280;63628;47.656;11.310;2023-03-22T05:06:13;94587.66;;;8.03;74.06
75051;BME280;63628;47.656;11.310;2023-03-22T05:08:40;94586.72;;;8.76;70.73
75051;BME280;63628;47.656;11.310;2023-03-22T05:11:08;94583.75;;;8.42;71.51
75051;BME280;63628;47.656;11.310;2023-03-22T05:13:36;94593.19;;;7.40;66.90
75051;BME280;63628;47.656;11.310;2023-03-22T05:16:04;94588.00;;;8.43;70.83
75051;BME280;63628;47.656;11.310;2023-03-22T05:18:31;94581.16;;;8.96;70.02
75051;BME280;63628;47.656;11.310;2023-03-22T05:20:59;94585.28;;;9.03;69.15
75051;BME280;63628;47.656;11.310;2023-03-22T05:23:30;94583.22;;;9.05;69.93
75051;BME280;63628;47.656;11.310;2023-03-22T05:25:57;94578.75;;;9.06;70.02
75051;BME280;63628;47.656;11.310;2023-03-22T05:28:23;94576.34;;;9.04;69.45
75051;BME280;63628;47.656;11.310;2023-03-22T05:30:52;94581.38;;;9.06;69.76
75051;BME280;63628;47.656;11.310;2023-03-22T05:33:22;94585.13;;;8.45;63.17
75051;BME280;63628;47.656;11.310;2023-03-22T05:35:48;94595.38;;;7.86;73.39
75051;BME280;63628;47.656;11.310;2023-03-22T05:38:16;94590.53;;;8.80;70.43
75051;BME280;63628;47.656;11.310;2023-03-22T05:40:44;94587.22;;;8.96;69.58
75051;BME280;63628;47.656;11.310;2023-03-22T05:43:12;94584.22;;;8.81;64.23
75051;BME280;63628;47.656;11.310;2023-03-22T05:45:38;94595.72;;;5.18;73.53
75051;BME280;63628;47.656;11.310;2023-03-22T05:48:06;94593.66;;;7.74;74.00
75051;BME280;63628;47.656;11.310;2023-03-22T05:50:33;94597.72;;;5.43;73.44
75051;BME280;63628;47.656;11.310;2023-03-22T05:53:00;94594.03;;;7.16;73.50
75051;BME280;63628;47.656;11.310;2023-03-22T05:55:27;94598.78;;;5.22;76.90
75051;BME280;63628;47.656;11.310;2023-03-22T05:57:58;94593.47;;;7.93;72.34
75051;BME280;63628;47.656;11.310;2023-03-22T06:00:25;94594.50;;;8.59;70.79
75051;BME280;63628;47.656;11.310;2023-03-22T06:02:52;94597.50;;;8.74;69.47
75051;BME280;63628;47.656;11.310;2023-03-22T06:05:22;94596.59;;;8.80;69.03
75051;BME280;63628;47.656;11.310;2023-03-22T06:07:48;94598.00;;;8.83;69.60
75051;BME280;63628;47.656;11.310;2023-03-22T06:10:15;94607.22;;;6.84;69.35
75051;BME280;63628;47.656;11.310;2023-03-22T06:12:43;94603.59;;;8.45;70.92
75051;BME280;63628;47.656;11.310;2023-03-22T06:15:12;94608.28;;;8.73;69.51
75051;BME280;63628;47.656;11.310;2023-03-22T06:17:38;94607.38;;;8.79;69.17
75051;BME280;63628;47.656;11.310;2023-03-22T06:20:06;94624.59;;;7.17;74.63
75051;BME280;63628;47.656;11.310;2023-03-22T06:22:37;94630.19;;;7.88;69.99
75051;BME280;63628;47.656;11.310;2023-03-22T06:25:04;94626.38;;;8.21;71.53
75051;BME280;63628;47.656;11.310;2023-03-22T06:27:32;94631.38;;;7.92;71.33
75051;BME280;63628;47.656;11.310;2023-03-22T06:29:59;94627.25;;;8.15;71.46
75051;BME280;63628;47.656;11.310;2023-03-22T06:32:27;94630.59;;;7.67;72.07
75051;BME280;63628;47.656;11.310;2023-03-22T06:34:54;94633.63;;;8.07;71.06
75051;BME280;63628;47.656;11.310;2023-03-22T06:37:22;94640.16;;;8.05;70.37
75051;BME280;63628;47.656;11.310;2023-03-22T06:39:49;94640.22;;;8.16;70.51
75051;BME280;63628;47.656;11.310;2023-03-22T06:42:17;94642.72;;;8.11;71.19
75051;BME280;63628;47.656;11.310;2023-03-22T06:44:43;94636.59;;;8.66;70.30
75051;BME280;63628;47.656;11.310;2023-03-22T06:47:10;94643.84;;;8.70;68.80
75051;BME280;63628;47.656;11.310;2023-03-22T06:49:39;94645.66;;;7.85;71.59
75051;BME280;63628;47.656;11.310;2023-03-22T06:52:06;94647.13;;;7.06;74.95
75051;BME280;63628;47.656;11.310;2023-03-22T06:54:33;94647.06;;;7.62;72.73
75051;BME280;63628;47.656;11.310;2023-03-22T06:57:00;94638.16;;;8.37;72.93
75051;BME280;63628;47.656;11.310;2023-03-22T06:59:27;94640.22;;;8.16;71.17
75051;BME280;63628;47.656;11.310;2023-03-22T07:01:53;94637.19;;;8.68;71.47
75051;BME280;63628;47.656;11.310;2023-03-22T07:04:20;94641.16;;;9.00;71.83
75051;BME280;63628;47.656;11.310;2023-03-22T07:06:48;94637.25;;;9.79;70.22
75051;BME280;63628;47.656;11.310;2023-03-22T07:09:15;94638.16;;;9.85;69.38
75051;BME280;63628;47.656;11.310;2023-03-22T07:11:42;94636.94;;;11.25;66.14
75051;BME280;63628;47.656;11.310;2023-03-22T07:14:08;94639.59;;;11.75;66.81
75051;BME280;63628;47.656;11.310;2023-03-22T07:16:35;94633.97;;;11.71;64.77
75051;BME280;63628;47.656;11.310;2023-03-22T07:19:02;94633.13;;;12.26;64.91
75051;BME280;63628;47.656;11.310;2023-03-22T07:21:29;94627.03;;;12.26;65.62
75051;BME280;63628;47.656;11.310;2023-03-22T07:23:57;94633.44;;;12.08;65.10
75051;BME280;63628;47.656;11.310;2023-03-22T07:26:24;94633.22;;;11.26;65.53
75051;BME280;63628;47.656;11.310;2023-03-22T07:28:51;94633.31;;;10.86;66.07
75051;BME280;63628;47.656;11.310;2023-03-22T07:31:18;94626.72;;;11.17;62.40
75051;BME280;63628;47.656;11.310;2023-03-22T07:33:45;94619.94;;;13.02;62.36
75051;BME280;63628;47.656;11.310;2023-03-22T07:36:11;94631.22;;;11.66;62.36
75051;BME280;63628;47.656;11.310;2023-03-22T07:38:38;94627.81;;;12.04;67.65
75051;BME280;63628;47.656;11.310;2023-03-22T07:41:06;94620.16;;;13.59;59.39
75051;BME280;63628;47.656;11.310;2023-03-22T07:43:33;94611.63;;;14.42;60.68
75051;BME280;63628;47.656;11.310;2023-03-22T07:46:18;94618.91;;;13.67;59.79
75051;BME280;63628;47.656;11.310;2023-03-22T07:48:44;94618.19;;;13.77;57.17
75051;BME280;63628;47.656;11.310;2023-03-22T07:51:11;94612.41;;;13.90;61.08
75051;BME280;63628;47.656;11.310;2023-03-22T07:53:37;94620.06;;;14.28;58.85
75051;BME280;63628;47.656;11.310;2023-03-22T07:56:05;94612.94;;;15.32;55.39
75051;BME280;63628;47.656;11.310;2023-03-22T07:58:33;94612.28;;;14.69;54.64
75051;BME280;63628;47.656;11.310;2023-03-22T08:01:03;94610.97;;;14.19;54.86
75051;BME280;63628;47.656;11.310;2023-03-22T08:03:30;94615.66;;;13.97;60.15
75051;BME280;63628;47.656;11.310;2023-03-22T08:05:59;94610.81;;;15.29;56.14
75051;BME280;63628;47.656;11.310;2023-03-22T08:08:29;94608.41;;;15.22;60.20
75051;BME280;63628;47.656;11.310;2023-03-22T08:10:55;94603.59;;;15.25;55.64
75051;BME280;63628;47.656;11.310;2023-03-22T08:13:22;94610.75;;;13.15;56.85
75051;BME280;63628;47.656;11.310;2023-03-22T08:15:50;94609.88;;;14.10;58.50
75051;BME280;63628;47.656;11.310;2023-03-22T08:18:16;94605.97;;;16.02;55.61
75051;BME280;63628;47.656;11.310;2023-03-22T08:20:43;94596.84;;;16.18;52.12
75051;BME280;63628;47.656;11.310;2023-03-22T08:23:12;94598.44;;;16.30;53.20
75051;BME280;63628;47.656;11.310;2023-03-22T08:25:42;94597.44;;;16.05;51.58
75051;BME280;63628;47.656;11.310;2023-03-22T08:28:09;94600.63;;;16.07;51.23
75051;BME280;63628;47.656;11.310;2023-03-22T08:30:37;94587.28;;;16.07;54.04
75051;BME280;63628;47.656;11.310;2023-03-22T08:33:06;94588.97;;;16.63;50.45
75051;BME280;63628;47.656;11.310;2023-03-22T08:35:33;94593.50;;;16.67;54.60
75051;BME280;63628;47.656;11.310;2023-03-22T08:38:00;94589.25;;;17.84;51.31
75051;BME280;63628;47.656;11.310;2023-03-22T08:40:27;94584.91;;;17.20;52.00
75051;BME280;63628;47.656;11.310;2023-03-22T08:42:54;94603.34;;;13.49;58.29
75051;BME280;63628;47.656;11.310;2023-03-22T08:45:21;94597.91;;;13.33;61.00
75051;BME280;63628;47.656;11.310;2023-03-22T08:47:48;94592.41;;;15.48;56.87
75051;BME280;63628;47.656;11.310;2023-03-22T08:50:16;94584.56;;;17.31;50.56
75051;BME280;63628;47.656;11.310;2023-03-22T08:52:43;94583.63;;;17.12;48.79
75051;BME280;63628;47.656;11.310;2023-03-22T08:55:09;94583.06;;;15.55;48.86
75051;BME280;63628;47.656;11.310;2023-03-22T08:57:36;94585.19;;;14.30;58.30
75051;BME280;63628;47.656;11.310;2023-03-22T09:00:05;94580.38;;;15.91;50.12
75051;BME280;63628;47.656;11.310;2023-03-22T09:06:40;94579.13;;;13.45;58.03
75051;BME280;63628;47.656;11.310;2023-03-22T09:09:10;94571.84;;;16.69;47.75
75051;BME280;63628;47.656;11.310;2023-03-22T09:11:37;94571.09;;;16.53;49.13
75051;BME280;63628;47.656;11.310;2023-03-22T09:14:05;94575.81;;;16.07;47.49
75051;BME280;63628;47.656;11.310;2023-03-22T09:16:32;94572.38;;;15.55;50.33
75051;BME280;63628;47.656;11.310;2023-03-22T09:18:59;94575.63;;;15.73;49.35
75051;BME280;63628;47.656;11.310;2023-03-22T09:21:26;94558.94;;;16.81;48.03
75051;BME280;63628;47.656;11.310;2023-03-22T09:23:54;94560.28;;;16.14;48.12
75051;BME280;63628;47.656;11.310;2023-03-22T09:26:21;94558.78;;;15.82;47.29
75051;BME280;63628;47.656;11.310;2023-03-22T09:28:49;94563.88;;;15.38;49.07
75051;BME280;63628;47.656;11.310;2023-03-22T09:35:23;94557.34;;;14.48;52.95
75051;BME280;63628;47.656;11.310;2023-03-22T09:37:49;94563.06;;;15.07;47.82
75051;BME280;63628;47.656;11.310;2023-03-22T09:40:20;94552.91;;;15.55;48.72
75051;BME280;63628;47.656;11.310;2023-03-22T09:42:51;94553.22;;;15.28;51.88
75051;BME280;63628;47.656;11.310;2023-03-22T09:45:23;94549.22;;;12.69;60.15
75051;BME280;63628;47.656;11.310;2023-03-22T09:47:57;94539.28;;;14.65;52.19
75051;BME280;63628;47.656;11.310;2023-03-22T09:50:26;94534.75;;;15.88;43.72
75051;BME280;63628;47.656;11.310;2023-03-22T09:52:53;94541.97;;;15.87;47.22
75051;BME280;63628;47.656;11.310;2023-03-22T09:55:31;94540.00;;;16.13;45.06
75051;BME280;63628;47.656;11.310;2023-03-22T09:58:06;94543.88;;;15.20;47.63
75051;BME280;63628;47.656;11.310;2023-03-22T10:00:39;94534.56;;;12.93;58.82
75051;BME280;63628;47.656;11.310;2023-03-22T10:03:17;94534.00;;;12.91;59.51
75051;BME280;63628;47.656;11.310;2023-03-22T10:05:49;94534.00;;;15.21;47.39
75051;BME280;63628;47.656;11.310;2023-03-22T10:08:29;94529.13;;;15.99;43.85
75051;BME280;63628;47.656;11.310;2023-03-22T10:11:00;94530.53;;;15.36;41.87
75051;BME280;63628;47.656;11.310;2023-03-22T10:13:32;94523.84;;;15.48;44.71
75051;BME280;63628;47.656;11.310;2023-03-22T10:16:02;94519.31;;;15.44;42.41
75051;BME280;63628;47.656;11.310;2023-03-22T10:18:35;94519.59;;;15.37;42.13
75051;BME280;63628;47.656;11.310;2023-03-22T10:21:03;94512.75;;;17.43;44.00
75051;BME280;63628;47.656;11.310;2023-03-22T10:23:34;94512.06;;;16.99;42.14
75051;BME280;63628;47.656;11.310;2023-03-22T10:26:05;94505.09;;;17.90;39.33
75051;BME280;63628;47.656;11.310;2023-03-22T10:28:36;94500.13;;;17.49;41.94
75051;BME280;63628;47.656;11.310;2023-03-22T10:31:05;94502.03;;;16.31;42.37
75051;BME280;63628;47.656;11.310;2023-03-22T10:33:37;94488.59;;;19.57;38.25
75051;BME280;63628;47.656;11.310;2023-03-22T10:36:10;94492.75;;;17.70;38.32
75051;BME280;63628;47.656;11.310;2023-03-22T10:38:44;94490.81;;;16.78;39.76
75051;BME280;63628;47.656;11.310;2023-03-22T10:41:15;94500.91;;;15.73;42.36
75051;BME280;63628;47.656;11.310;2023-03-22T10:43:44;94480.91;;;17.76;38.61
75051;BME280;63628;47.656;11.310;2023-03-22T10:46:17;94473.03;;;17.85;38.68
75051;BME280;63628;47.656;11.310;2023-03-22T10:48:45;94474.19;;;18.83;38.25
75051;BME280;63628;47.656;11.310;2023-03-22T10:51:20;94478.53;;;18.60;35.99
75051;BME280;63628;47.656;11.310;2023-03-22T10:53:49;94481.25;;;17.69;38.43
75051;BME280;63628;47.656;11.310;2023-03-22T10:56:18;94471.41;;;17.60;38.99
75051;BME280;63628;47.656;11.310;2023-03-22T10:58:46;94473.16;;;19.30;39.39
75051;BME280;63628;47.656;11.310;2023-03-22T11:01:15;94463.63;;;18.11;38.62
75051;BME280;63628;47.656;11.310;2023-03-22T11:03:51;94456.53;;;18.20;39.28
75051;BME280;63628;47.656;11.310;2023-03-22T11:06:22;94460.47;;;19.68;36.22
75051;BME280;63628;47.656;11.310;2023-03-22T11:08:50;94460.44;;;18.89;37.36
75051;BME280;63628;47.656;11.310;2023-03-22T11:11:21;94448.06;;;22.14;36.87
75051;BME280;63628;47.656;11.310;2023-03-22T11:13:50;94445.72;;;22.39;39.13
75051;BME280;63628;47.656;11.310;2023-03-22T11:16:18;94456.22;;;23.35;36.48
75051;BME280;63628;47.656;11.310;2023-03-22T11:18:45;94447.34;;;23.35;32.17
75051;BME280;63628;47.656;11.310;2023-03-22T11:21:15;94451.47;;;21.36;34.66
75051;BME280;63628;47.656;11.310;2023-03-22T11:23:49;94444.38;;;21.71;32.71
75051;BME280;63628;47.656;11.310;2023-03-22T11:26:26;94437.97;;;22.63;35.32
75051;BME280;63628;47.656;11.310;2023-03-22T11:29:01;94440.97;;;20.67;39.92
75051;BME280;63628;47.656;11.310;2023-03-22T11:31:47;94443.03;;;16.28;51.11
75051;BME280;63628;47.656;11.310;2023-03-22T11:34:17;94438.13;;;18.14;44.96
75051;BME280;63628;47.656;11.310;2023-03-22T11:36:45;94428.19;;;18.38;38.09
75051;BME280;63628;47.656;11.310;2023-03-22T11:39:16;94432.22;;;18.35;36.53
75051;BME280;63628;47.656;11.310;2023-03-22T11:41:44;94427.84;;;17.01;44.59
75051;BME280;63628;47.656;11.310;2023-03-22T11:44:12;94424.69;;;18.37;39.05
75051;BME280;63628;47.656;11.310;2023-03-22T11:46:47;94429.34;;;18.69;36.07
75051;BME280;63628;47.656;11.310;2023-03-22T11:49:16;94426.63;;;19.53;37.77
75051;BME280;63628;47.656;11.310;2023-03-22T11:51:43;94427.03;;;19.88;33.93
75051;BME280;63628;47.656;11.310;2023-03-22T11:54:14;94417.16;;;18.77;38.46
75051;BME280;63628;47.656;11.310;2023-03-22T11:56:46;94418.75;;;17.79;36.94
75051;BME280;63628;47.656;11.310;2023-03-22T11:59:15;94410.53;;;17.47;40.40
75051;BME280;63628;47.656;11.310;2023-03-22T12:01:49;94420.25;;;16.79;38.28
75051;BME280;63628;47.656;11.310;2023-03-22T12:04:22;94413.97;;;17.23;38.34
75051;BME280;63628;47.656;11.310;2023-03-22T12:06:51;94410.44;;;17.57;36.40
75051;BME280;63628;47.656;11.310;2023-03-22T12:09:24;94395.41;;;18.03;35.53
75051;BME280;63628;47.656;11.310;2023-03-22T12:11:56;94394.19;;;17.48;34.99
75051;BME280;63628;47.656;11.310;2023-03-22T12:14:25;94396.91;;;17.91;35.20
75051;BME280;63628;47.656;11.310;2023-03-22T12:16:56;94394.38;;;17.04;36.50
75051;BME280;63628;47.656;11.310;2023-03-22T12:19:40;94391.81;;;16.94;39.00
75051;BME280;63628;47.656;11.310;2023-03-22T12:22:12;94390.19;;;17.46;37.53
75051;BME280;63628;47.656;11.310;2023-03-22T12:24:39;94395.28;;;16.89;38.09
75051;BME280;63628;47.656;11.310;2023-03-22T12:27:14;94388.22;;;16.74;36.42
75051;BME280;63628;47.656;11.310;2023-03-22T12:29:45;94379.88;;;16.81;37.99
75051;BME280;63628;47.656;11.310;2023-03-22T12:32:16;94377.78;;;17.31;37.49
75051;BME280;63628;47.656;11.310;2023-03-22T12:34:47;94378.06;;;17.05;40.51
75051;BME280;63628;47.656;11.310;2023-03-22T12:37:21;94369.25;;;17.05;39.01
75051;BME280;63628;47.656;11.310;2023-03-22T12:39:52;94367.53;;;17.38;37.56
75051;BME280;63628;47.656;11.310;2023-03-22T12:42:23;94360.81;;;16.93;45.21
75051;BME280;63628;47.656;11.310;2023-03-22T12:44:56;94361.91;;;17.16;37.56
75051;BME280;63628;47.656;11.310;2023-03-22T12:47:34;94358.19;;;16.83;38.97
75051;BME280;63628;47.656;11.310;2023-03-22T12:50:06;94352.09;;;17.54;38.36
75051;BME280;63628;47.656;11.310;2023-03-22T12:52:39;94350.31;;;17.25;42.14
75051;BME280;63628;47.656;11.310;2023-03-22T12:55:19;94346.06;;;17.43;41.88
75051;BME280;63628;47.656;11.310;2023-03-22T12:57:48;94339.88;;;17.48;41.58
75051;BME280;63628;47.656;11.310;2023-03-22T13:00:19;94341.19;;;17.93;38.52
75051;BME280;63628;47.656;11.310;2023-03-22T13:02:48;94338.91;;;16.91;42.56
75051;BME280;63628;47.656;11.310;2023-03-22T13:05:18;94327.47;;;17.57;38.90
75051;BME280;63628;47.656;11.310;2023-03-22T13:07:52;94329.47;;;17.70;39.65
75051;BME280;63628;47.656;11.310;2023-03-22T13:13:43;94329.25;;;16.61;50.25
75051;BME280;63628;47.656;11.310;2023-03-22T13:16:16;94324.50;;;15.10;56.07
75051;BME280;63628;47.656;11.310;2023-03-22T13:19:02;94312.81;;;17.06;47.71
75051;BME280;63628;47.656;11.310;2023-03-22T13:21:31;94312.56;;;17.03;43.15
75051;BME280;63628;47.656;11.310;2023-03-22T13:23:59;94305.72;;;17.39;39.53